Time;durP1;ratioP1;P1;durP2;ratioP2;P2;SDS_P1;SDS_P2;PMS_P1;PMS_P2;Temp;Humidity;BMP_temperature;BMP_pressure;BME280_temperature;BME280_humidity;BME280_pressure;Samples;Min_cycle;Max_cycle;Signal;HPM_P1;HPM_P2
2024/01/12 00:01:39;;;;;;;50.33;23.98;;;1.00;99.90;;;;;;4905111;28;85811;-82
2024/01/12 00:04:05;;;;;;;51.38;24.15;;;1.00;99.90;;;;;;4907486;28;85841;-79
2024/01/12 00:06:31;;;;;;;53.22;24.58;;;1.10;99.90;;;;;;4906597;28;85732;-79
2024/01/12 00:08:58;;;;;;;52.10;22.98;;;1.10;99.90;;;;;;4905856;28;85667;-83
2024/01/12 00:11:23;;;;;;;49.05;22.77;;;1.10;99.90;;;;;;4904066;28;85505;-81
2024/01/12 00:13:52;;;;;;;54.45;24.08;;;1.10;99.90;;;;;;4907451;28;85683;-82
2024/01/12 00:16:21;;;;;;;56.85;24.80;;;1.20;99.90;;;;;;4897093;28;86217;-81
2024/01/12 00:18:56;;;;;;;54.70;25.55;;;1.20;99.90;;;;;;4903738;23;86486;-81
2024/01/12 00:21:22;;;;;;;50.10;24.08;;;1.20;99.90;;;;;;4871266;28;86528;-80
2024/01/12 00:23:48;;;;;;;51.13;24.85;;;1.20;99.90;;;;;;4859770;28;86391;-79
2024/01/12 00:26:16;;;;;;;52.08;23.02;;;1.20;99.90;;;;;;4871215;28;86425;-82
2024/01/12 00:28:45;;;;;;;52.33;24.13;;;1.20;99.90;;;;;;4852166;28;85131;-79
2024/01/12 00:31:11;;;;;;;47.17;23.50;;;1.20;99.90;;;;;;4879151;28;86096;-80
2024/01/12 00:33:37;;;;;;;57.03;25.77;;;1.20;99.90;;;;;;5210639;23;87131;-81
2024/01/12 00:36:08;;;;;;;51.35;23.77;;;1.20;99.90;;;;;;4908777;28;85634;-80
2024/01/12 00:38:34;;;;;;;48.55;24.05;;;1.30;99.90;;;;;;4914508;28;85751;-80
2024/01/12 00:41:00;;;;;;;51.05;23.95;;;1.30;99.90;;;;;;4895482;28;85804;-79
2024/01/12 00:43:27;;;;;;;44.38;21.58;;;1.30;99.90;;;;;;4906285;28;87003;-81
2024/01/12 00:45:53;;;;;;;51.03;24.48;;;1.30;99.90;;;;;;4905231;28;86093;-80
2024/01/12 00:48:22;;;;;;;46.20;23.25;;;1.30;99.90;;;;;;4909036;28;85064;-80
2024/01/12 00:50:48;;;;;;;44.63;22.98;;;1.20;99.90;;;;;;4904943;28;85815;-80
2024/01/12 00:53:17;;;;;;;55.45;25.20;;;1.30;99.90;;;;;;4898760;28;86529;-80
2024/01/12 00:55:43;;;;;;;53.20;24.88;;;1.20;99.90;;;;;;4900696;28;85549;-81
2024/01/12 00:58:11;;;;;;;53.80;24.92;;;1.30;99.90;;;;;;4903620;28;85868;-80
2024/01/12 01:00:37;;;;;;;49.10;23.65;;;1.30;99.90;;;;;;4905975;28;86390;-79
2024/01/12 01:03:05;;;;;;;55.67;27.27;;;1.30;99.90;;;;;;4904985;28;86061;-80
2024/01/12 01:05:31;;;;;;;55.90;25.70;;;1.30;99.90;;;;;;4909728;28;85783;-84
2024/01/12 01:07:57;;;;;;;51.58;24.33;;;1.20;99.90;;;;;;4905664;28;85432;-80
2024/01/12 01:10:30;;;;;;;55.67;25.15;;;1.30;99.90;;;;;;4906102;28;85390;-82
2024/01/12 01:12:59;;;;;;;55.65;25.65;;;1.30;99.90;;;;;;4910554;28;87411;-83
2024/01/12 01:15:25;;;;;;;58.63;25.73;;;1.30;99.90;;;;;;4908986;28;85909;-80
2024/01/12 01:17:53;;;;;;;52.20;24.83;;;1.30;99.90;;;;;;4921267;23;85734;-80
2024/01/12 01:20:26;;;;;;;52.35;24.70;;;1.30;99.90;;;;;;4887578;28;85456;-79
2024/01/12 01:22:52;;;;;;;55.67;24.92;;;1.30;99.90;;;;;;4881051;28;85693;-81
2024/01/12 01:25:20;;;;;;;51.40;25.77;;;1.30;99.90;;;;;;4885751;28;86288;-80
2024/01/12 01:27:56;;;;;;;;;;;;;;;;;;;;;
2024/01/12 01:38:15;;;;;;;48.95;25.55;;;1.40;99.90;;;;;;4478551;26;86182;-80
2024/01/12 01:45:50;;;;;;;;;;;1.30;99.90;;;;;;4889453;28;87096;-80
2024/01/12 01:48:21;;;;;;;52.88;24.17;;;1.30;99.90;;;;;;4905604;28;86054;-80
2024/01/12 01:53:30;;;;;;;50.35;25.60;;;1.20;99.90;;;;;;5159354;23;86080;-80
2024/01/12 01:56:00;;;;;;;56.08;25.55;;;1.20;99.90;;;;;;4908978;28;85851;-81
2024/01/12 02:25:01;;;;;;;83.20;29.60;;;1.40;99.90;;;;;;5276039;23;87681;31
2024/01/12 02:50:12;;;;;;;76.53;26.90;;;1.50;99.90;;;;;;5064110;23;87114;-80
2024/01/12 02:55:08;;;;;;;71.45;27.58;;;1.50;99.90;;;;;;5016111;23;86328;-81
2024/01/12 02:57:34;;;;;;;89.43;29.80;;;1.50;99.90;;;;;;4938674;28;86082;-80
2024/01/12 04:11:58;;;;;;;101.10;33.65;;;1.40;99.90;;;;;;2984183;23;87694;-79
2024/01/12 04:14:24;;;;;;;117.95;34.90;;;1.40;99.90;;;;;;4917052;28;87341;-79
2024/01/12 04:16:53;;;;;;;115.45;34.13;;;1.50;99.90;;;;;;4919021;28;86434;-81
2024/01/12 04:21:57;;;;;;;114.80;33.67;;;1.40;99.90;;;;;;5422757;23;87268;-80
2024/01/12 05:10:48;;;;;;;152.98;41.97;;;1.40;99.90;;;;;;5295636;23;87324;-79
2024/01/12 05:13:15;;;;;;;133.77;39.95;;;1.40;99.90;;;;;;4910418;28;86228;-80
2024/01/12 05:15:41;;;;;;;135.43;39.63;;;1.40;99.90;;;;;;5251754;23;87220;-80
2024/01/12 05:18:06;;;;;;;142.02;41.50;;;1.30;99.90;;;;;;5486137;23;86980;-80
2024/01/12 05:20:37;;;;;;;143.10;39.40;;;1.40;99.90;;;;;;4912219;28;85329;-81
2024/01/12 05:23:06;;;;;;;133.98;38.00;;;1.30;99.90;;;;;;5005304;23;87096;-79
2024/01/12 05:25:32;;;;;;;143.25;37.92;;;1.30;99.90;;;;;;5026819;23;87205;-78
2024/01/12 05:28:01;;;;;;;144.10;39.78;;;1.30;99.90;;;;;;5563710;23;87261;-80
2024/01/12 05:30:27;;;;;;;137.80;38.33;;;1.30;99.90;;;;;;5013062;23;86867;-79
2024/01/12 05:32:53;;;;;;;135.70;37.70;;;1.40;99.90;;;;;;4975908;23;90467;-80
2024/01/12 05:45:47;;;;;;;162.95;42.17;;;1.40;99.90;;;;;;4991838;23;86832;-82
2024/01/12 06:39:55;;;;;;;138.32;41.00;;;1.40;99.90;;;;;;4980122;23;87411;-80
2024/01/12 07:17:28;;;;;;;144.20;42.95;;;1.60;99.90;;;;;;4853284;29;84988;-83
2024/01/12 07:36:09;;;;;;;131.82;38.22;;;1.60;99.90;;;;;;5036456;22;86594;-86
2024/01/12 07:54:22;;;;;;;146.57;41.58;;;1.60;99.90;;;;;;4924005;28;87304;-83
2024/01/12 07:56:48;;;;;;;150.13;40.85;;;1.60;99.90;;;;;;4904380;28;85466;-80
2024/01/12 07:59:14;;;;;;;171.70;42.65;;;1.60;99.90;;;;;;4921614;28;86442;-81
2024/01/12 08:01:41;;;;;;;150.55;39.70;;;1.50;99.90;;;;;;4911242;28;85877;-81
2024/01/12 08:04:34;;;;;;;154.35;40.50;;;1.50;99.90;;;;;;4926049;28;85544;-81
2024/01/12 08:07:01;;;;;;;158.75;44.13;;;1.40;99.90;;;;;;4921157;28;85739;-82
2024/01/12 08:09:28;;;;;;;157.27;40.78;;;1.40;99.90;;;;;;4918517;28;86541;-80
2024/01/12 08:11:54;;;;;;;155.30;41.80;;;1.40;99.90;;;;;;4938727;28;85863;-82
2024/01/12 08:14:23;;;;;;;160.13;42.25;;;1.30;99.90;;;;;;4982846;23;86993;-78
2024/01/12 08:16:55;;;;;;;147.45;41.88;;;1.40;99.90;;;;;;4914965;28;86491;-81
2024/01/12 08:19:34;;;;;;;140.52;40.95;;;1.40;99.90;;;;;;5137483;23;86703;-83
2024/01/12 08:22:01;;;;;;;148.27;40.45;;;1.40;99.90;;;;;;4914748;28;85700;-78
2024/01/12 08:24:27;;;;;;;136.35;40.90;;;1.40;99.90;;;;;;4915423;28;85598;-81
2024/01/12 08:26:56;;;;;;;146.30;40.08;;;1.40;99.90;;;;;;4933942;28;85791;-80
2024/01/12 08:32:32;;;;;;;140.95;42.50;;;1.50;99.90;;;;;;1408573;23;89156;-80
2024/01/12 08:40:15;;;;;;;148.50;42.72;;;1.50;99.90;;;;;;4538596;23;86472;-80
2024/01/12 08:47:52;;;;;;;139.68;39.97;;;1.50;99.90;;;;;;4985383;23;86178;-79
2024/01/12 08:52:53;;;;;;;158.57;44.30;;;1.60;99.90;;;;;;5243074;23;87538;-79
2024/01/12 08:55:19;;;;;;;143.05;41.00;;;1.60;99.90;;;;;;4942890;23;86583;-81
2024/01/12 09:03:41;;;;;;;142.98;40.75;;;1.60;99.90;;;;;;5583410;23;86991;-80
2024/01/12 09:06:11;;;;;;;140.85;39.13;;;1.60;99.90;;;;;;4888323;28;90230;-84
2024/01/12 09:08:39;;;;;;;141.95;42.33;;;1.70;99.90;;;;;;4888911;28;86373;-81
2024/01/12 09:11:06;;;;;;;156.52;40.25;;;1.70;99.90;;;;;;4886283;28;87468;-82
2024/01/12 09:13:35;;;;;;;140.10;41.63;;;1.70;99.90;;;;;;4888508;28;86966;-82
2024/01/12 09:16:17;;;;;;;139.82;38.03;;;1.70;99.90;;;;;;4881299;28;85371;-84
2024/01/12 09:19:07;;;;;;;138.52;38.13;;;1.80;99.90;;;;;;4893166;28;85475;-83
2024/01/12 09:21:38;;;;;;;122.18;38.05;;;1.80;99.90;;;;;;4874098;28;85603;-83
2024/01/12 09:24:17;;;;;;;129.45;40.22;;;1.90;99.90;;;;;;4887896;28;88518;-82
2024/01/12 09:26:46;;;;;;;142.35;41.00;;;1.90;99.90;;;;;;4906982;28;85315;-83
2024/01/12 09:29:15;;;;;;;125.95;37.60;;;1.90;99.90;;;;;;4903068;28;85504;-83
2024/01/12 09:31:41;;;;;;;142.23;41.58;;;1.90;99.90;;;;;;4896188;28;85883;-81
2024/01/12 09:34:12;;;;;;;134.88;40.70;;;2.00;99.90;;;;;;4906417;28;85795;-83
2024/01/12 09:36:43;;;;;;;130.48;39.97;;;2.00;99.90;;;;;;4890719;28;85790;-83
2024/01/12 10:20:40;;;;;;;108.75;33.75;;;2.20;99.90;;;;;;5606480;23;86508;-80
2024/01/12 10:33:32;;;;;;;84.47;27.65;;;2.30;99.90;;;;;;5312434;23;87442;-80
2024/01/12 10:57:23;;;;;;;92.05;28.35;;;2.40;99.90;;;;;;5047232;23;85838;-82
2024/01/12 11:00:21;;;;;;;75.38;26.05;;;2.50;99.90;;;;;;4926200;28;84797;-84
2024/01/12 11:10:01;;;;;;;85.95;27.83;;;2.60;99.90;;;;;;4933482;28;89172;-84
2024/01/12 11:12:38;;;;;;;75.10;25.60;;;2.70;99.90;;;;;;4923402;28;85915;-80
2024/01/12 11:15:08;;;;;;;81.18;25.98;;;2.70;99.90;;;;;;4921873;28;88614;-80
2024/01/12 11:17:43;;;;;;;75.32;25.17;;;2.70;99.90;;;;;;4905270;28;88078;-80
2024/01/12 12:17:48;;;;;;;50.80;18.17;;;3.40;99.90;;;;;;5383540;23;87026;-80
2024/01/12 12:20:17;;;;;;;52.85;19.75;;;3.40;99.90;;;;;;4855904;28;86948;-78
2024/01/12 12:22:46;;;;;;;47.97;18.13;;;3.50;99.90;;;;;;4871910;28;86420;-80
2024/01/12 12:25:15;;;;;;;42.50;16.73;;;3.60;99.90;;;;;;4857464;28;86756;-80
2024/01/12 12:27:47;;;;;;;50.60;16.88;;;3.60;99.90;;;;;;4851766;28;86559;-79
2024/01/12 12:30:19;;;;;;;42.78;16.77;;;3.70;99.90;;;;;;4876350;28;87159;-78
2024/01/12 12:32:47;;;;;;;;;;;3.60;99.90;;;;;;4876052;28;87440;-80
2024/01/12 12:35:17;;;;;;;51.95;16.38;;;3.70;99.90;;;;;;4871239;28;87942;-80
2024/01/12 12:37:49;;;;;;;41.88;17.08;;;3.70;99.90;;;;;;4875484;28;86539;-79
2024/01/12 12:40:16;;;;;;;46.28;17.90;;;3.60;99.90;;;;;;4867793;28;87391;-79
2024/01/12 12:42:49;;;;;;;46.50;16.88;;;3.60;99.90;;;;;;4889082;28;87516;-79
2024/01/12 12:45:23;;;;;;;41.88;17.10;;;3.60;99.90;;;;;;4873229;28;85797;-79
2024/01/12 12:47:49;;;;;;;48.67;17.25;;;3.60;99.90;;;;;;4881243;28;85910;-79
2024/01/12 12:52:59;;;;;;;47.20;19.38;;;3.50;99.90;;;;;;4887895;28;86112;-79
2024/01/12 12:55:25;;;;;;;47.67;17.38;;;3.50;99.90;;;;;;4882209;28;86454;-79
2024/01/12 12:57:51;;;;;;;57.22;18.83;;;3.50;99.90;;;;;;4904707;28;86410;-78
2024/01/12 13:00:26;;;;;;;55.65;18.58;;;3.40;99.90;;;;;;4893342;28;86453;-80
2024/01/12 13:02:53;;;;;;;41.08;16.05;;;3.40;99.90;;;;;;4895454;28;91523;-79
2024/01/12 13:05:21;;;;;;;47.22;17.33;;;3.40;99.90;;;;;;4887109;28;87676;-79
2024/01/12 13:07:50;;;;;;;58.83;21.70;;;3.50;99.90;;;;;;4891235;28;85902;-80
2024/01/12 13:10:18;;;;;;;43.00;16.75;;;3.50;99.90;;;;;;4883820;28;86486;-79
2024/01/12 13:12:48;;;;;;;46.50;20.67;;;3.50;99.90;;;;;;4909124;28;86620;-80
2024/01/12 13:15:14;;;;;;;48.55;18.55;;;3.60;99.90;;;;;;4893147;28;85810;-82
2024/01/12 13:17:40;;;;;;;42.72;17.95;;;3.60;99.90;;;;;;4891883;28;86124;-79
2024/01/12 13:20:07;;;;;;;45.38;17.70;;;3.60;99.90;;;;;;4891251;28;86336;-81
2024/01/12 13:22:33;;;;;;;47.10;18.13;;;3.60;99.90;;;;;;4892638;28;86554;-79
2024/01/12 13:24:59;;;;;;;49.30;17.35;;;3.60;99.90;;;;;;4889054;28;85677;-79
2024/01/12 13:27:36;;;;;;;53.67;18.77;;;3.60;99.90;;;;;;4886483;28;85810;-80
2024/01/12 13:30:04;;;;;;;46.03;17.38;;;3.50;99.90;;;;;;4884259;28;92428;-80
2024/01/12 13:37:35;;;;;;;51.60;18.27;;;3.70;99.90;;;;;;4924408;23;85878;-81
2024/01/12 13:40:01;;;;;;;44.70;16.48;;;3.70;99.90;;;;;;4916154;28;85987;-82
2024/01/12 14:13:22;;;;;;;47.35;19.50;;;3.40;99.90;;;;;;5025024;23;86562;-81
2024/01/12 14:21:04;;;;;;;61.15;20.60;;;3.50;99.90;;;;;;5050678;23;89133;-80
2024/01/12 14:26:06;;;;;;;58.35;22.65;;;3.50;99.90;;;;;;2562187;23;90996;-81
2024/01/12 14:28:40;;;;;;;48.47;19.65;;;3.50;99.90;;;;;;5046199;23;87184;-79
2024/01/12 14:31:06;;;;;;;46.83;18.75;;;3.50;99.90;;;;;;4902234;28;85673;-79
2024/01/12 14:33:33;;;;;;;62.28;20.65;;;3.50;99.90;;;;;;4892525;28;85925;-82
2024/01/12 14:36:04;;;;;;;57.35;20.70;;;3.50;99.90;;;;;;4895571;28;86471;-80
2024/01/12 14:38:30;;;;;;;52.65;19.25;;;3.40;99.90;;;;;;4884471;28;84983;-79
2024/01/12 14:40:57;;;;;;;48.03;19.92;;;3.40;99.90;;;;;;4899768;28;85939;-83
2024/01/12 14:43:23;;;;;;;51.55;19.83;;;3.40;99.90;;;;;;4897759;28;86139;-80
2024/01/12 14:45:49;;;;;;;56.92;22.17;;;3.30;99.90;;;;;;4905221;28;86171;-80
2024/01/12 14:48:15;;;;;;;44.63;16.38;;;3.30;99.90;;;;;;5313023;23;87495;-80
2024/01/12 14:50:41;;;;;;;65.20;24.33;;;3.30;99.90;;;;;;4880169;28;86840;-80
2024/01/12 14:58:25;;;;;;;64.35;22.33;;;3.10;99.90;;;;;;5898302;23;87567;-80
2024/01/12 15:11:12;;;;;;;75.78;23.60;;;3.00;99.90;;;;;;4987280;23;87364;-82
2024/01/12 15:13:45;;;;;;;59.55;23.08;;;3.00;99.90;;;;;;4904271;28;86046;-81
2024/01/12 15:16:11;;;;;;;68.18;24.02;;;3.00;99.90;;;;;;4916132;28;85616;-82
2024/01/12 15:18:40;;;;;;;73.57;23.83;;;3.00;99.90;;;;;;4902750;28;85237;-84
2024/01/12 15:21:27;;;;;;;62.60;23.55;;;3.00;99.90;;;;;;4925228;28;85799;-81
2024/01/12 15:24:15;;;;;;;69.20;23.92;;;3.00;99.90;;;;;;4888421;28;91586;-82
2024/01/12 15:26:41;;;;;;;70.03;23.50;;;3.00;99.90;;;;;;4905924;28;85632;-86
2024/01/12 15:57:35;;;;;;;63.80;22.35;;;3.20;99.90;;;;;;4725820;23;85850;-80
2024/01/12 16:17:59;;;;;;;72.63;26.60;;;3.20;99.90;;;;;;4225910;23;89318;-79
2024/01/12 16:25:47;;;;;;;;;;;;;;;;;;;;;
2024/01/12 17:14:41;;;;;;;67.15;24.15;;;2.50;99.90;;;;;;5494958;23;87109;-81
2024/01/12 17:53:24;;;;;;;82.60;26.60;;;2.30;99.90;;;;;;5982101;23;86892;-81
2024/01/12 18:03:28;;;;;;;71.68;27.90;;;2.20;99.90;;;;;;4813244;23;87760;-79
2024/01/12 18:16:18;;;;;;;65.78;26.25;;;2.30;99.90;;;;;;4909163;23;86143;-79
2024/01/12 18:18:46;;;;;;;68.15;26.80;;;2.20;99.90;;;;;;4911031;28;86501;-80
2024/01/12 18:21:12;;;;;;;70.32;25.77;;;2.20;99.90;;;;;;4912841;28;86057;-80
2024/01/12 18:23:48;;;;;;;61.08;24.17;;;2.20;99.90;;;;;;4912330;28;86136;-79
2024/01/12 18:31:27;;;;;;;75.43;26.98;;;2.20;99.90;;;;;;5044691;23;85273;-85
2024/01/12 18:36:57;;;;;;;69.15;25.10;;;2.30;99.90;;;;;;5016012;23;86809;-84
2024/01/12 18:46:13;;;;;;;64.55;23.73;;;2.30;99.90;;;;;;5019553;23;111440;-86
2024/01/12 18:57:32;;;;;;;61.67;25.95;;;2.30;99.90;;;;;;4972456;23;85600;-78
2024/01/12 19:00:07;;;;;;;65.50;25.40;;;2.30;99.90;;;;;;4934574;28;85721;-79
2024/01/12 19:05:04;;;;;;;64.43;23.90;;;2.30;99.90;;;;;;4891630;28;85407;-85
2024/01/12 19:07:52;;;;;;;69.05;27.45;;;2.30;99.90;;;;;;4835432;29;85249;-84
2024/01/12 19:17:07;;;;;;;69.10;25.58;;;2.30;99.90;;;;;;4835175;23;85059;-86
2024/01/12 19:30:10;;;;;;;80.43;27.13;;;2.20;99.90;;;;;;4891442;29;85392;-84
2024/01/12 19:36:37;;;;;;;81.97;28.13;;;2.20;99.90;;;;;;3949721;23;87769;-84
2024/01/12 19:39:26;;;;;;;70.57;26.30;;;2.20;99.90;;;;;;4857670;28;92656;-84
2024/01/12 19:52:17;;;;;;;72.45;25.27;;;2.20;99.90;;;;;;4861680;28;89969;-85
2024/01/12 20:02:35;;;;;;;62.60;25.55;;;2.20;99.90;;;;;;4887323;28;84740;-84
2024/01/12 20:08:01;;;;;;;73.60;28.15;;;2.20;99.90;;;;;;5389002;23;87299;-79
2024/01/12 20:13:00;;;;;;;67.13;27.17;;;2.20;99.90;;;;;;4897404;28;87671;-79
2024/01/12 20:20:38;;;;;;;72.95;27.00;;;2.40;99.90;;;;;;5578529;23;87171;-86
2024/01/12 20:41:54;;;;;;;68.65;25.58;;;2.40;99.90;;;;;;5011417;23;85936;-88
2024/01/12 20:44:42;;;;;;;65.97;24.92;;;2.40;99.90;;;;;;4933238;23;86372;-80
2024/01/12 20:50:00;;;;;;;74.18;28.35;;;2.40;99.90;;;;;;4923208;23;89601;-80
2024/01/12 20:52:29;;;;;;;76.63;28.80;;;2.40;99.90;;;;;;4884912;28;86207;-80
2024/01/12 20:55:14;;;;;;;70.18;26.52;;;2.50;99.90;;;;;;4985987;23;87724;-81
2024/01/12 20:57:46;;;;;;;60.13;24.52;;;2.50;99.90;;;;;;4907561;23;87027;-81
2024/01/12 21:00:18;;;;;;;65.38;25.65;;;2.60;99.90;;;;;;5480299;23;86443;-80
2024/01/12 21:02:45;;;;;;;59.13;25.25;;;2.60;99.90;;;;;;5122987;23;87220;-82
2024/01/12 21:05:12;;;;;;;72.82;26.23;;;2.60;99.90;;;;;;4926124;23;85942;-81
2024/01/12 21:10:15;;;;;;;64.00;24.00;;;2.50;99.90;;;;;;4968343;23;85952;-80
2024/01/12 21:12:46;;;;;;;65.32;25.88;;;2.50;99.90;;;;;;5002510;23;87277;-80
2024/01/12 21:15:11;;;;;;;61.05;26.33;;;2.50;99.90;;;;;;4961180;23;86102;-81
2024/01/12 21:17:39;;;;;;;73.82;27.25;;;2.50;99.90;;;;;;5052239;23;86144;-80
2024/01/12 21:51:58;;;;;;;55.83;23.27;;;2.80;99.90;;;;;;4965351;23;86308;-82
2024/01/12 21:54:24;;;;;;;62.47;23.30;;;2.80;99.90;;;;;;4907314;28;85204;-79
2024/01/12 21:56:55;;;;;;;57.20;22.27;;;2.80;99.90;;;;;;4894090;28;85464;-80
2024/01/12 21:59:27;;;;;;;61.63;22.90;;;2.80;99.90;;;;;;4897037;28;86248;-81
2024/01/12 22:01:55;;;;;;;54.40;22.80;;;2.70;99.90;;;;;;4900413;28;86139;-80
2024/01/12 22:04:20;;;;;;;60.70;22.85;;;2.70;99.90;;;;;;4901605;28;85740;-79
2024/01/12 22:06:53;;;;;;;65.13;24.08;;;2.70;99.90;;;;;;4896448;28;85999;-81
2024/01/12 22:09:22;;;;;;;54.65;22.90;;;2.70;99.90;;;;;;4900150;28;86392;-83
2024/01/12 22:11:52;;;;;;;52.40;21.48;;;2.70;99.90;;;;;;4895360;28;85959;-79
2024/01/12 22:14:31;;;;;;;;;;;2.70;99.90;;;;;;4907651;28;87236;-80
2024/01/12 22:17:12;;;;;;;51.08;21.85;;;2.70;99.90;;;;;;4900932;28;86209;-78
2024/01/12 22:22:39;;;;;;;50.20;21.85;;;2.80;99.90;;;;;;4608123;23;86112;-79
2024/01/12 23:14:17;;;;;;;55.00;22.45;;;2.70;99.90;;;;;;5861786;23;87343;-82
2024/01/12 23:16:44;;;;;;;55.28;22.92;;;2.70;99.90;;;;;;5045420;23;86225;-85
2024/01/12 23:21:52;;;;;;;52.20;20.63;;;2.70;99.90;;;;;;5094463;23;86877;-80
2024/01/12 23:24:23;;;;;;;53.88;20.15;;;2.70;99.90;;;;;;5080462;23;89195;-77
2024/01/12 23:26:55;;;;;;;47.97;20.38;;;2.70;99.90;;;;;;1611705;23;88277;-80
2024/01/12 23:48:03;;;;;;;44.83;19.75;;;2.60;99.90;;;;;;5382812;23;86655;31
2024/01/12 23:50:41;;;;;;;44.80;18.55;;;2.60;99.90;;;;;;3945027;23;87535;-87
2024/01/12 23:55:55;;;;;;;52.90;20.17;;;2.60;99.90;;;;;;5212431;22;114259;-83
